sensor_id;sensor_type;location;lat;lon;timestamp;P1;durP1;ratioP1;P2;durP2;ratioP2
63406;SDS011;49543;45.892;10.838;2022-10-22T05:18:28;42.63;;;27.15;;
63406;SDS011;49543;45.892;10.838;2022-10-22T05:20:53;47.58;;;30.27;;
63406;SDS011;49543;45.892;10.838;2022-10-22T05:23:19;44.72;;;27.05;;
63406;SDS011;49543;45.892;10.838;2022-10-22T05:25:44;45.10;;;28.20;;
63406;SDS011;49543;45.892;10.838;2022-10-22T05:28:09;43.63;;;27.15;;
63406;SDS011;49543;45.892;10.838;2022-10-22T05:30:35;41.50;;;25.95;;
63406;SDS011;49543;45.892;10.838;2022-10-22T05:33:00;50.95;;;31.25;;
63406;SDS011;49543;45.892;10.838;2022-10-22T05:35:26;40.83;;;25.42;;
63406;SDS011;49543;45.892;10.838;2022-10-22T05:37:51;40.58;;;25.67;;
63406;SDS011;49543;45.892;10.838;2022-10-22T05:40:17;45.25;;;27.77;;
63406;SDS011;49543;45.892;10.838;2022-10-22T05:42:43;42.45;;;27.80;;
63406;SDS011;49543;45.892;10.838;2022-10-22T05:45:08;47.92;;;29.95;;
63406;SDS011;49543;45.892;10.838;2022-10-22T05:47:34;48.08;;;30.73;;
63406;SDS011;49543;45.892;10.838;2022-10-22T05:49:59;44.88;;;28.45;;
63406;SDS011;49543;45.892;10.838;2022-10-22T05:52:25;43.75;;;27.05;;
63406;SDS011;49543;45.892;10.838;2022-10-22T05:54:50;43.95;;;26.83;;
63406;SDS011;49543;45.892;10.838;2022-10-22T05:57:16;47.05;;;28.02;;
63406;SDS011;49543;45.892;10.838;2022-10-22T05:59:41;49.35;;;29.40;;
63406;SDS011;49543;45.892;10.838;2022-10-22T06:02:10;46.17;;;29.70;;
63406;SDS011;49543;45.892;10.838;2022-10-22T06:04:35;46.97;;;30.42;;
63406;SDS011;49543;45.892;10.838;2022-10-22T06:07:01;54.15;;;32.85;;
63406;SDS011;49543;45.892;10.838;2022-10-22T06:09:30;51.80;;;31.75;;
63406;SDS011;49543;45.892;10.838;2022-10-22T06:11:59;47.83;;;28.35;;
63406;SDS011;49543;45.892;10.838;2022-10-22T06:14:25;45.05;;;27.00;;
63406;SDS011;49543;45.892;10.838;2022-10-22T06:16:51;43.22;;;28.58;;
63406;SDS011;49543;45.892;10.838;2022-10-22T06:19:18;47.13;;;28.92;;
63406;SDS011;49543;45.892;10.838;2022-10-22T06:21:45;41.97;;;26.55;;
63406;SDS011;49543;45.892;10.838;2022-10-22T06:24:12;44.05;;;27.08;;
63406;SDS011;49543;45.892;10.838;2022-10-22T06:26:38;44.03;;;27.17;;
63406;SDS011;49543;45.892;10.838;2022-10-22T06:29:04;40.72;;;24.63;;
63406;SDS011;49543;45.892;10.838;2022-10-22T06:31:29;40.25;;;26.65;;
63406;SDS011;49543;45.892;10.838;2022-10-22T06:34:04;42.58;;;26.85;;
63406;SDS011;49543;45.892;10.838;2022-10-22T06:36:31;41.30;;;25.88;;
63406;SDS011;49543;45.892;10.838;2022-10-22T06:38:57;47.45;;;27.95;;
63406;SDS011;49543;45.892;10.838;2022-10-22T06:41:23;42.65;;;27.50;;
63406;SDS011;49543;45.892;10.838;2022-10-22T06:43:48;36.20;;;24.33;;
63406;SDS011;49543;45.892;10.838;2022-10-22T06:46:15;34.72;;;22.73;;
63406;SDS011;49543;45.892;10.838;2022-10-22T06:48:42;42.83;;;25.95;;
63406;SDS011;49543;45.892;10.838;2022-10-22T06:51:12;40.72;;;25.33;;
63406;SDS011;49543;45.892;10.838;2022-10-22T06:53:37;36.38;;;22.88;;
63406;SDS011;49543;45.892;10.838;2022-10-22T06:56:08;38.83;;;25.02;;
63406;SDS011;49543;45.892;10.838;2022-10-22T06:58:35;43.20;;;24.55;;
63406;SDS011;49543;45.892;10.838;2022-10-22T07:01:05;39.33;;;24.75;;
63406;SDS011;49543;45.892;10.838;2022-10-22T07:03:35;40.28;;;25.05;;
63406;SDS011;49543;45.892;10.838;2022-10-22T07:06:02;48.83;;;28.02;;
63406;SDS011;49543;45.892;10.838;2022-10-22T07:08:29;46.50;;;28.48;;
63406;SDS011;49543;45.892;10.838;2022-10-22T07:10:55;47.47;;;28.10;;
63406;SDS011;49543;45.892;10.838;2022-10-22T07:13:23;47.55;;;28.33;;
63406;SDS011;49543;45.892;10.838;2022-10-22T07:15:52;46.58;;;28.27;;
63406;SDS011;49543;45.892;10.838;2022-10-22T07:18:19;44.92;;;27.55;;
63406;SDS011;49543;45.892;10.838;2022-10-22T07:20:45;43.40;;;26.55;;
63406;SDS011;49543;45.892;10.838;2022-10-22T07:23:12;44.38;;;26.50;;
63406;SDS011;49543;45.892;10.838;2022-10-22T07:25:37;42.13;;;26.15;;
63406;SDS011;49543;45.892;10.838;2022-10-22T07:28:02;44.13;;;28.25;;
63406;SDS011;49543;45.892;10.838;2022-10-22T07:30:28;42.97;;;26.85;;
63406;SDS011;49543;45.892;10.838;2022-10-22T07:32:53;46.47;;;28.10;;
63406;SDS011;49543;45.892;10.838;2022-10-22T07:35:19;41.92;;;27.20;;
63406;SDS011;49543;45.892;10.838;2022-10-22T07:37:44;41.15;;;26.48;;
63406;SDS011;49543;45.892;10.838;2022-10-22T07:40:10;38.95;;;25.45;;
63406;SDS011;49543;45.892;10.838;2022-10-22T07:42:35;39.85;;;25.67;;
63406;SDS011;49543;45.892;10.838;2022-10-22T07:45:01;39.90;;;25.50;;
63406;SDS011;49543;45.892;10.838;2022-10-22T07:47:27;43.15;;;26.60;;
63406;SDS011;49543;45.892;10.838;2022-10-22T07:49:52;43.13;;;27.30;;
63406;SDS011;49543;45.892;10.838;2022-10-22T07:52:17;39.20;;;25.50;;
63406;SDS011;49543;45.892;10.838;2022-10-22T07:54:43;41.83;;;25.77;;
63406;SDS011;49543;45.892;10.838;2022-10-22T07:57:08;45.67;;;27.33;;
63406;SDS011;49543;45.892;10.838;2022-10-22T07:59:34;41.20;;;26.20;;
63406;SDS011;49543;45.892;10.838;2022-10-22T08:01:59;47.60;;;28.10;;
63406;SDS011;49543;45.892;10.838;2022-10-22T08:04:24;41.78;;;27.73;;
63406;SDS011;49543;45.892;10.838;2022-10-22T08:06:50;46.60;;;27.15;;
63406;SDS011;49543;45.892;10.838;2022-10-22T08:09:15;44.63;;;27.90;;
63406;SDS011;49543;45.892;10.838;2022-10-22T08:11:41;43.90;;;25.88;;
63406;SDS011;49543;45.892;10.838;2022-10-22T08:14:06;38.20;;;24.98;;
63406;SDS011;49543;45.892;10.838;2022-10-22T08:16:31;36.20;;;23.38;;
63406;SDS011;49543;45.892;10.838;2022-10-22T08:18:57;46.05;;;27.67;;
63406;SDS011;49543;45.892;10.838;2022-10-22T08:21:22;37.30;;;23.98;;
63406;SDS011;49543;45.892;10.838;2022-10-22T08:23:48;40.92;;;26.08;;
63406;SDS011;49543;45.892;10.838;2022-10-22T08:26:13;41.47;;;26.45;;
63406;SDS011;49543;45.892;10.838;2022-10-22T08:28:39;37.00;;;25.52;;
63406;SDS011;49543;45.892;10.838;2022-10-22T08:31:05;38.03;;;25.17;;
63406;SDS011;49543;45.892;10.838;2022-10-22T08:33:32;42.65;;;26.67;;
63406;SDS011;49543;45.892;10.838;2022-10-22T08:35:57;39.58;;;26.40;;
63406;SDS011;49543;45.892;10.838;2022-10-22T08:38:23;39.53;;;24.95;;
63406;SDS011;49543;45.892;10.838;2022-10-22T08:40:50;39.17;;;24.35;;
63406;SDS011;49543;45.892;10.838;2022-10-22T08:51:01;33.22;;;22.02;;
63406;SDS011;49543;45.892;10.838;2022-10-22T08:53:29;31.17;;;20.83;;
63406;SDS011;49543;45.892;10.838;2022-10-22T08:56:02;29.33;;;20.58;;
63406;SDS011;49543;45.892;10.838;2022-10-22T09:01:09;31.08;;;20.55;;
63406;SDS011;49543;45.892;10.838;2022-10-22T09:03:51;28.20;;;17.55;;
63406;SDS011;49543;45.892;10.838;2022-10-22T09:06:23;26.38;;;18.48;;
63406;SDS011;49543;45.892;10.838;2022-10-22T09:08:50;28.25;;;19.27;;
63406;SDS011;49543;45.892;10.838;2022-10-22T09:13:48;27.83;;;17.48;;
63406;SDS011;49543;45.892;10.838;2022-10-22T09:16:21;25.88;;;15.50;;
63406;SDS011;49543;45.892;10.838;2022-10-22T09:18:59;24.80;;;16.27;;
63406;SDS011;49543;45.892;10.838;2022-10-22T09:24:17;8.13;;;6.80;;
63406;SDS011;49543;45.892;10.838;2022-10-22T09:26:45;7.95;;;6.47;;
63406;SDS011;49543;45.892;10.838;2022-10-22T09:29:18;9.02;;;5.10;;
63406;SDS011;49543;45.892;10.838;2022-10-22T09:31:47;6.72;;;5.10;;
63406;SDS011;49543;45.892;10.838;2022-10-22T09:34:13;6.57;;;4.78;;
63406;SDS011;49543;45.892;10.838;2022-10-22T09:36:40;8.70;;;5.85;;
63406;SDS011;49543;45.892;10.838;2022-10-22T09:39:12;8.27;;;5.30;;
63406;SDS011;49543;45.892;10.838;2022-10-22T09:41:46;11.88;;;5.32;;
63406;SDS011;49543;45.892;10.838;2022-10-22T09:44:12;7.60;;;4.95;;
63406;SDS011;49543;45.892;10.838;2022-10-22T09:46:38;6.82;;;5.28;;
63406;SDS011;49543;45.892;10.838;2022-10-22T09:49:10;4.57;;;3.13;;
63406;SDS011;49543;45.892;10.838;2022-10-22T09:59:18;3.03;;;2.22;;
63406;SDS011;49543;45.892;10.838;2022-10-22T10:01:54;4.22;;;1.92;;
63406;SDS011;49543;45.892;10.838;2022-10-22T10:04:21;2.60;;;2.40;;
63406;SDS011;49543;45.892;10.838;2022-10-22T10:06:51;6.57;;;3.40;;
63406;SDS011;49543;45.892;10.838;2022-10-22T10:09:20;2.42;;;2.10;;
63406;SDS011;49543;45.892;10.838;2022-10-22T10:14:23;4.50;;;2.75;;
63406;SDS011;49543;45.892;10.838;2022-10-22T10:19:59;4.95;;;2.55;;
63406;SDS011;49543;45.892;10.838;2022-10-22T10:22:45;4.70;;;3.10;;
63406;SDS011;49543;45.892;10.838;2022-10-22T10:25:22;4.50;;;2.75;;
63406;SDS011;49543;45.892;10.838;2022-10-22T10:27:57;3.22;;;2.70;;
63406;SDS011;49543;45.892;10.838;2022-10-22T10:30:29;4.70;;;2.63;;
63406;SDS011;49543;45.892;10.838;2022-10-22T10:41:23;3.90;;;2.35;;
63406;SDS011;49543;45.892;10.838;2022-10-22T10:49:41;4.53;;;3.60;;
63406;SDS011;49543;45.892;10.838;2022-10-22T11:00:20;15.68;;;9.15;;
63406;SDS011;49543;45.892;10.838;2022-10-22T11:02:55;5.03;;;3.10;;
63406;SDS011;49543;45.892;10.838;2022-10-22T11:10:39;4.03;;;2.75;;
63406;SDS011;49543;45.892;10.838;2022-10-22T11:13:12;5.22;;;2.88;;
63406;SDS011;49543;45.892;10.838;2022-10-22T11:18:57;2.33;;;2.13;;
63406;SDS011;49543;45.892;10.838;2022-10-22T11:21:52;2.38;;;1.80;;
63406;SDS011;49543;45.892;10.838;2022-10-22T11:24:36;2.53;;;2.17;;
63406;SDS011;49543;45.892;10.838;2022-10-22T11:30:03;1.70;;;1.60;;
63406;SDS011;49543;45.892;10.838;2022-10-22T11:32:32;5.40;;;3.10;;
63406;SDS011;49543;45.892;10.838;2022-10-22T11:35:00;6.38;;;4.88;;
63406;SDS011;49543;45.892;10.838;2022-10-22T11:37:30;4.18;;;3.03;;
63406;SDS011;49543;45.892;10.838;2022-10-22T11:40:20;2.50;;;2.30;;
63406;SDS011;49543;45.892;10.838;2022-10-22T11:45:35;2.10;;;1.90;;
63406;SDS011;49543;45.892;10.838;2022-10-22T11:58:34;1.65;;;1.55;;
63406;SDS011;49543;45.892;10.838;2022-10-22T12:01:46;2.03;;;1.70;;
63406;SDS011;49543;45.892;10.838;2022-10-22T12:04:22;2.22;;;2.00;;
63406;SDS011;49543;45.892;10.838;2022-10-22T12:07:24;2.17;;;1.90;;
63406;SDS011;49543;45.892;10.838;2022-10-22T12:10:03;2.53;;;1.90;;
63406;SDS011;49543;45.892;10.838;2022-10-22T12:15:19;2.00;;;1.80;;
63406;SDS011;49543;45.892;10.838;2022-10-22T12:17:55;2.80;;;2.10;;
63406;SDS011;49543;45.892;10.838;2022-10-22T12:20:24;2.33;;;2.10;;
63406;SDS011;49543;45.892;10.838;2022-10-22T12:22:51;2.20;;;2.00;;
63406;SDS011;49543;45.892;10.838;2022-10-22T12:25:20;3.50;;;1.85;;
63406;SDS011;49543;45.892;10.838;2022-10-22T12:27:52;2.38;;;2.10;;
63406;SDS011;49543;45.892;10.838;2022-10-22T12:32:52;3.10;;;2.13;;
63406;SDS011;49543;45.892;10.838;2022-10-22T12:35:22;2.63;;;2.10;;
63406;SDS011;49543;45.892;10.838;2022-10-22T12:37:57;3.90;;;2.30;;
63406;SDS011;49543;45.892;10.838;2022-10-22T12:40:28;2.75;;;2.42;;
63406;SDS011;49543;45.892;10.838;2022-10-22T12:42:58;2.50;;;2.10;;
63406;SDS011;49543;45.892;10.838;2022-10-22T12:46:03;3.33;;;2.28;;
63406;SDS011;49543;45.892;10.838;2022-10-22T12:48:37;2.40;;;2.20;;
63406;SDS011;49543;45.892;10.838;2022-10-22T12:51:06;4.50;;;2.37;;
63406;SDS011;49543;45.892;10.838;2022-10-22T12:53:36;2.63;;;2.42;;
63406;SDS011;49543;45.892;10.838;2022-10-22T12:56:10;2.92;;;2.67;;
63406;SDS011;49543;45.892;10.838;2022-10-22T12:58:45;2.85;;;2.42;;
63406;SDS011;49543;45.892;10.838;2022-10-22T13:01:17;3.33;;;2.25;;
63406;SDS011;49543;45.892;10.838;2022-10-22T13:03:49;4.55;;;2.20;;
63406;SDS011;49543;45.892;10.838;2022-10-22T13:06:27;3.47;;;2.65;;
63406;SDS011;49543;45.892;10.838;2022-10-22T13:11:33;2.70;;;2.50;;
63406;SDS011;49543;45.892;10.838;2022-10-22T13:14:14;2.30;;;2.10;;
63406;SDS011;49543;45.892;10.838;2022-10-22T13:28:00;2.70;;;2.50;;
63406;SDS011;49543;45.892;10.838;2022-10-22T13:30:35;2.47;;;2.28;;
63406;SDS011;49543;45.892;10.838;2022-10-22T13:33:03;2.72;;;2.38;;
63406;SDS011;49543;45.892;10.838;2022-10-22T13:35:34;1.98;;;1.83;;
63406;SDS011;49543;45.892;10.838;2022-10-22T13:38:04;2.17;;;1.98;;
63406;SDS011;49543;45.892;10.838;2022-10-22T13:40:39;2.35;;;2.00;;
63406;SDS011;49543;45.892;10.838;2022-10-22T13:43:07;1.90;;;1.80;;
63406;SDS011;49543;45.892;10.838;2022-10-22T13:45:32;2.60;;;1.88;;
63406;SDS011;49543;45.892;10.838;2022-10-22T13:47:58;2.03;;;1.63;;
63406;SDS011;49543;45.892;10.838;2022-10-22T13:50:23;1.98;;;1.70;;
63406;SDS011;49543;45.892;10.838;2022-10-22T13:52:53;1.60;;;1.50;;
63406;SDS011;49543;45.892;10.838;2022-10-22T13:55:21;1.55;;;1.45;;
63406;SDS011;49543;45.892;10.838;2022-10-22T13:58:13;1.58;;;1.40;;
63406;SDS011;49543;45.892;10.838;2022-10-22T14:00:38;1.33;;;1.23;;
63406;SDS011;49543;45.892;10.838;2022-10-22T14:03:09;1.70;;;1.60;;
63406;SDS011;49543;45.892;10.838;2022-10-22T14:05:36;2.53;;;2.13;;
63406;SDS011;49543;45.892;10.838;2022-10-22T14:08:02;1.98;;;1.77;;
63406;SDS011;49543;45.892;10.838;2022-10-22T14:10:29;3.22;;;1.50;;
63406;SDS011;49543;45.892;10.838;2022-10-22T14:12:55;1.90;;;1.40;;
63406;SDS011;49543;45.892;10.838;2022-10-22T14:15:23;2.10;;;1.33;;
63406;SDS011;49543;45.892;10.838;2022-10-22T14:17:53;1.60;;;1.50;;
63406;SDS011;49543;45.892;10.838;2022-10-22T14:20:22;1.38;;;1.27;;
63406;SDS011;49543;45.892;10.838;2022-10-22T14:22:53;1.40;;;1.30;;
63406;SDS011;49543;45.892;10.838;2022-10-22T14:25:20;1.75;;;1.50;;
63406;SDS011;49543;45.892;10.838;2022-10-22T14:27:51;1.73;;;1.20;;
63406;SDS011;49543;45.892;10.838;2022-10-22T14:30:21;2.65;;;1.60;;
63406;SDS011;49543;45.892;10.838;2022-10-22T14:32:48;1.45;;;1.35;;
63406;SDS011;49543;45.892;10.838;2022-10-22T16:26:09;2.35;;;1.00;;
63406;SDS011;49543;45.892;10.838;2022-10-22T16:28:35;1.58;;;1.00;;
63406;SDS011;49543;45.892;10.838;2022-10-22T16:31:01;1.00;;;0.90;;
63406;SDS011;49543;45.892;10.838;2022-10-22T16:33:29;2.05;;;1.20;;
63406;SDS011;49543;45.892;10.838;2022-10-22T16:35:54;0.90;;;0.90;;
63406;SDS011;49543;45.892;10.838;2022-10-22T16:38:20;0.70;;;0.70;;
63406;SDS011;49543;45.892;10.838;2022-10-22T16:40:45;1.63;;;0.95;;
63406;SDS011;49543;45.892;10.838;2022-10-22T16:43:11;1.17;;;0.80;;
63406;SDS011;49543;45.892;10.838;2022-10-22T16:45:36;2.25;;;0.95;;
63406;SDS011;49543;45.892;10.838;2022-10-22T16:48:02;0.90;;;0.90;;
63406;SDS011;49543;45.892;10.838;2022-10-22T16:50:28;2.13;;;1.10;;
63406;SDS011;49543;45.892;10.838;2022-10-22T16:52:53;1.13;;;1.13;;
63406;SDS011;49543;45.892;10.838;2022-10-22T16:55:19;0.98;;;0.98;;
63406;SDS011;49543;45.892;10.838;2022-10-22T16:57:49;2.70;;;0.95;;
63406;SDS011;49543;45.892;10.838;2022-10-22T17:00:16;1.40;;;0.93;;
63406;SDS011;49543;45.892;10.838;2022-10-22T17:02:41;0.98;;;0.98;;
63406;SDS011;49543;45.892;10.838;2022-10-22T17:05:14;1.25;;;1.25;;
63406;SDS011;49543;45.892;10.838;2022-10-22T17:07:39;0.82;;;0.82;;
63406;SDS011;49543;45.892;10.838;2022-10-22T17:10:05;0.93;;;0.90;;
63406;SDS011;49543;45.892;10.838;2022-10-22T17:12:32;1.05;;;0.95;;
63406;SDS011;49543;45.892;10.838;2022-10-22T17:14:59;3.13;;;1.10;;
63406;SDS011;49543;45.892;10.838;2022-10-22T17:17:26;1.05;;;0.93;;
63406;SDS011;49543;45.892;10.838;2022-10-22T17:19:51;1.95;;;0.90;;
63406;SDS011;49543;45.892;10.838;2022-10-22T17:22:17;1.98;;;1.80;;
63406;SDS011;49543;45.892;10.838;2022-10-22T17:24:42;1.95;;;1.80;;
63406;SDS011;49543;45.892;10.838;2022-10-22T17:27:08;1.33;;;1.23;;
63406;SDS011;49543;45.892;10.838;2022-10-22T17:29:35;1.40;;;1.30;;
63406;SDS011;49543;45.892;10.838;2022-10-22T17:32:01;1.63;;;1.48;;
63406;SDS011;49543;45.892;10.838;2022-10-22T17:34:26;1.20;;;1.10;;
63406;SDS011;49543;45.892;10.838;2022-10-22T17:36:54;3.53;;;1.38;;
63406;SDS011;49543;45.892;10.838;2022-10-22T17:41:49;1.75;;;1.38;;
63406;SDS011;49543;45.892;10.838;2022-10-22T17:44:15;1.30;;;1.20;;
63406;SDS011;49543;45.892;10.838;2022-10-22T17:46:40;1.45;;;1.02;;
63406;SDS011;49543;45.892;10.838;2022-10-22T17:49:11;1.50;;;1.30;;
63406;SDS011;49543;45.892;10.838;2022-10-22T17:51:41;2.28;;;1.15;;
63406;SDS011;49543;45.892;10.838;2022-10-22T17:54:06;3.00;;;1.65;;
63406;SDS011;49543;45.892;10.838;2022-10-22T17:56:32;1.30;;;1.20;;
63406;SDS011;49543;45.892;10.838;2022-10-22T17:58:57;1.10;;;0.90;;
63406;SDS011;49543;45.892;10.838;2022-10-22T18:01:26;3.00;;;1.13;;
63406;SDS011;49543;45.892;10.838;2022-10-22T18:04:06;2.08;;;1.70;;
63406;SDS011;49543;45.892;10.838;2022-10-22T18:06:32;1.60;;;1.50;;
63406;SDS011;49543;45.892;10.838;2022-10-22T18:09:02;1.27;;;1.17;;
63406;SDS011;49543;45.892;10.838;2022-10-22T18:11:28;1.55;;;1.45;;
63406;SDS011;49543;45.892;10.838;2022-10-22T18:13:55;3.10;;;1.30;;
63406;SDS011;49543;45.892;10.838;2022-10-22T18:16:21;0.93;;;0.93;;
63406;SDS011;49543;45.892;10.838;2022-10-22T18:18:48;1.27;;;1.17;;
63406;SDS011;49543;45.892;10.838;2022-10-22T18:21:15;4.65;;;1.27;;
63406;SDS011;49543;45.892;10.838;2022-10-22T18:23:41;1.23;;;1.13;;
63406;SDS011;49543;45.892;10.838;2022-10-22T18:26:07;1.73;;;1.42;;
63406;SDS011;49543;45.892;10.838;2022-10-22T18:28:32;2.25;;;1.80;;
63406;SDS011;49543;45.892;10.838;2022-10-22T18:30:58;1.90;;;1.80;;
63406;SDS011;49543;45.892;10.838;2022-10-22T18:33:24;1.83;;;1.73;;
63406;SDS011;49543;45.892;10.838;2022-10-22T18:35:50;1.30;;;1.20;;
63406;SDS011;49543;45.892;10.838;2022-10-22T18:38:19;1.10;;;1.00;;
63406;SDS011;49543;45.892;10.838;2022-10-22T18:40:46;2.15;;;1.33;;
